Las Cruces International Airport
KLRU : rendu visible

Aérodrome :











RETROUVEZ-NOUS SUR...

 
LOGIN :

S'inscrire | Disclaimer

   EN    FR    IT 

 









Légende :    VFR   VFR Marginal   IFR   IFR Intensif   IFR Très Intensif
Visi : 
Plafond : 
>= 8 km
>= 3000ft
5 à 8 km
1000 à 3000 ft
1500m à 5 km
500 à 1000 ft
800 à 1500m
200 à 500 ft
< 800m
< 200 ft
Symboles :   Orages  Brouillard  Fortes neiges  Fortes précipitations  Vent > 20 kt






- Altitude de l'aérodrome : 4456 ft
- Code IATA : LRU


KLRU - Las Cruces International

DERNIER METAR :
  • 190415Z AUTO 15008KT 10SM CLR 11/01 A3012 RMK AO2 T01060008

METARs EXPIRÉS :
  • 190355Z AUTO 14008KT 10SM CLR 11/01 A3012 RMK AO2 T01100010
  • 190335Z AUTO 14008KT 10SM CLR 11/01 A3011 RMK AO2 T01130010
  • 190315Z AUTO 14009KT 10SM CLR 12/01 A3011 RMK AO2 T01170011
  • 190255Z AUTO 13008KT 10SM CLR 12/01 A3010 RMK AO2 T01210012
  • 190235Z AUTO 12008KT 10SM CLR 13/01 A3009 RMK AO2 T01250011
  • 190215Z AUTO 13007KT 10SM CLR 13/01 A3009 RMK AO2 T01300011
  • 190155Z AUTO 12008KT 10SM CLR 14/01 A3008 RMK AO2 T01400009
  • 190135Z AUTO 16007KT 10SM CLR 15/00 A3008 RMK AO2 T01510003

TAF KLRU
Valide du 19 à 00h jusqu'au 20 à 00h UTC


182343Z 1900/1924 18010G17KT P6SM SCT250
FM190300 15006KT P6SM SCT250



MET'MAP, la Météo Aéronautique d'un coup d'oeil ! - Copyright ORBIFLY Décembre 2007 - Disclaimer

ORBIFLY MET'MAP TEAM :

Programmation & Développement : Alexandra Zaïnal
Sur une idée originale de : Baudouin d'Aumeries
Assistance à la programmation : Marc-Olivier Méhu
Soutien technique & logistique : Manuel Goepfert

Contact : metmap@orbifly.com




SOURCES & CREDITS :

   NOAA       Earth
Advisory